createdAt,value
2019-02-24T00:00:19.223Z,3.67
2019-02-24T00:04:27.659Z,3.59
2019-02-24T00:08:34.575Z,3.59
2019-02-24T00:12:41.541Z,3.53
2019-02-24T00:16:48.456Z,3.55
2019-02-24T00:20:55.388Z,3.52
2019-02-24T00:25:02.311Z,3.59
2019-02-24T00:29:09.112Z,3.53
2019-02-24T00:33:16.067Z,3.54
2019-02-24T00:37:22.932Z,3.58
2019-02-24T00:41:29.792Z,3.60
2019-02-24T00:45:36.696Z,3.58
2019-02-24T00:49:43.520Z,3.57
2019-02-24T00:53:50.376Z,3.57
2019-02-24T00:57:57.253Z,3.45
2019-02-24T01:02:04.237Z,3.38
2019-02-24T01:06:11.053Z,3.32
2019-02-24T01:10:17.975Z,3.32
2019-02-24T01:14:24.821Z,3.35
2019-02-24T01:18:31.637Z,3.33
2019-02-24T01:22:38.571Z,3.27
2019-02-24T01:26:45.505Z,3.27
2019-02-24T01:30:52.492Z,3.28
2019-02-24T01:34:59.341Z,3.29
2019-02-24T01:39:06.781Z,3.26
2019-02-24T01:43:14.327Z,3.23
2019-02-24T01:47:21.158Z,3.15
2019-02-24T01:51:28.500Z,3.03
2019-02-24T01:55:35.391Z,2.92
2019-02-24T01:59:42.201Z,2.86
2019-02-24T02:03:49.229Z,2.76
2019-02-24T02:07:56.129Z,2.67
2019-02-24T02:12:03.079Z,2.58
2019-02-24T02:16:09.983Z,2.46
2019-02-24T02:20:16.891Z,2.46
2019-02-24T02:24:23.826Z,2.39
2019-02-24T02:28:30.647Z,2.39
2019-02-24T02:32:37.631Z,2.26
2019-02-24T02:36:44.441Z,2.20
2019-02-24T02:40:51.341Z,2.18
2019-02-24T02:44:58.263Z,2.17
2019-02-24T02:49:05.135Z,2.05
2019-02-24T02:53:11.980Z,2.07
2019-02-24T02:57:18.807Z,2.07
2019-02-24T03:01:25.713Z,2.10
2019-02-24T03:05:32.862Z,2.01
2019-02-24T03:09:39.830Z,1.97
2019-02-24T03:13:46.702Z,1.92
2019-02-24T03:17:53.561Z,1.94
2019-02-24T03:22:00.377Z,1.96
2019-02-24T03:26:07.319Z,1.92
2019-02-24T03:30:14.158Z,1.90
2019-02-24T03:34:21.022Z,1.86
2019-02-24T03:38:27.859Z,1.84
2019-02-24T03:42:34.762Z,1.79
2019-02-24T03:46:41.679Z,1.76
2019-02-24T03:50:48.494Z,1.70
2019-02-24T03:54:55.295Z,1.62
2019-02-24T03:59:02.161Z,1.62
2019-02-24T04:03:09.007Z,1.68
2019-02-24T04:07:15.832Z,1.58
2019-02-24T04:11:22.667Z,1.56
2019-02-24T04:15:29.550Z,1.54
2019-02-24T04:19:36.420Z,1.61
2019-02-24T04:23:43.225Z,1.60
2019-02-24T04:27:50.043Z,1.60
2019-02-24T04:31:56.962Z,1.53
2019-02-24T04:36:03.792Z,1.57
2019-02-24T04:40:11.726Z,1.55
2019-02-24T04:44:18.549Z,1.61
2019-02-24T04:48:26.425Z,1.59
2019-02-24T04:52:34.376Z,1.54
2019-02-24T04:56:41.275Z,1.54
2019-02-24T05:00:48.165Z,1.49
2019-02-24T05:04:56.181Z,1.49
2019-02-24T05:09:03.176Z,1.55
2019-02-24T05:13:11.887Z,1.51
2019-02-24T05:17:18.734Z,1.48
2019-02-24T05:21:25.558Z,1.48
2019-02-24T05:25:32.456Z,1.47
2019-02-24T05:29:45.970Z,1.43
2019-02-24T05:33:47.941Z,1.40
2019-02-24T05:37:54.885Z,1.37
2019-02-24T05:42:01.709Z,1.23
2019-02-24T05:46:08.869Z,1.24
2019-02-24T05:50:15.839Z,1.27
2019-02-24T05:54:22.863Z,1.26
2019-02-24T05:58:29.956Z,1.24
2019-02-24T06:02:37.210Z,1.29
2019-02-24T06:06:44.075Z,1.29
2019-02-24T06:10:50.892Z,1.29
2019-02-24T06:14:57.901Z,1.27
2019-02-24T06:19:04.845Z,1.32
2019-02-24T06:23:11.717Z,1.23
2019-02-24T06:27:18.758Z,1.26
2019-02-24T06:31:25.643Z,1.26
2019-02-24T06:35:32.507Z,1.27
2019-02-24T06:39:39.505Z,1.19
2019-02-24T06:43:46.516Z,1.25
2019-02-24T06:47:53.819Z,1.31
2019-02-24T06:52:00.758Z,1.25
2019-02-24T06:56:07.785Z,1.32
2019-02-24T07:00:16.511Z,1.45
2019-02-24T07:04:23.303Z,1.61
2019-02-24T07:08:30.503Z,1.64
2019-02-24T07:12:37.520Z,1.56
2019-02-24T07:16:44.890Z,1.76
2019-02-24T07:20:53.289Z,1.95
2019-02-24T07:25:00.293Z,2.13
2019-02-24T07:29:07.343Z,2.25
2019-02-24T07:33:14.273Z,2.40
2019-02-24T07:37:21.236Z,2.49
2019-02-24T07:41:30.433Z,2.31
2019-02-24T07:50:55.678Z,2.81
2019-02-24T07:55:02.549Z,2.82
2019-02-24T07:59:09.547Z,2.95
2019-02-24T08:03:16.448Z,2.86
2019-02-24T08:07:23.501Z,3.07
2019-02-24T08:11:30.691Z,3.78
2019-02-24T08:15:37.525Z,4.12
2019-02-24T08:19:44.538Z,4.48
2019-02-24T08:23:51.598Z,4.41
2019-02-24T08:27:58.809Z,5.39
2019-02-24T08:33:26.600Z,5.91
2019-02-24T08:37:33.614Z,5.58
2019-02-24T08:41:40.849Z,6.07
2019-02-24T08:45:47.987Z,6.81
2019-02-24T08:49:55.302Z,7.94
2019-02-24T08:54:02.377Z,8.72
2019-02-24T08:58:09.573Z,8.68
2019-02-24T09:02:16.930Z,8.91
2019-02-24T09:06:24.206Z,9.36
2019-02-24T09:10:33.592Z,8.81
2019-02-24T09:14:41.018Z,9.10
2019-02-24T09:18:55.617Z,7.90
2019-02-24T09:23:05.230Z,8.86
2019-02-24T09:27:12.648Z,9.16
2019-02-24T09:31:19.990Z,9.50
2019-02-24T09:35:27.082Z,9.40
2019-02-24T09:39:36.264Z,10.20
2019-02-24T09:43:54.355Z,9.75
2019-02-24T09:48:01.797Z,9.93
2019-02-24T09:52:10.125Z,8.51
2019-02-24T09:56:21.974Z,8.59
2019-02-24T10:00:29.405Z,9.34
2019-02-24T10:04:36.463Z,8.07
2019-02-24T10:08:44.765Z,8.35
2019-02-24T10:12:51.788Z,8.54
2019-02-24T10:16:58.745Z,8.77
2019-02-24T10:21:05.919Z,8.98
2019-02-24T10:25:12.968Z,7.98
2019-02-24T10:29:20.026Z,8.82
2019-02-24T10:33:26.990Z,8.78
2019-02-24T10:37:34.216Z,8.50
2019-02-24T10:41:41.260Z,8.92
2019-02-24T10:45:48.217Z,8.61
2019-02-24T10:49:55.289Z,9.09
2019-02-24T10:54:02.232Z,8.90
2019-02-24T10:58:09.194Z,9.32
2019-02-24T11:02:16.354Z,9.65
2019-02-24T11:06:23.453Z,9.85
2019-02-24T11:10:30.536Z,10.18
2019-02-24T11:14:37.684Z,10.04
2019-02-24T11:18:44.748Z,10.01
2019-02-24T11:22:51.862Z,10.23
2019-02-24T11:26:59.848Z,9.94
2019-02-24T11:31:07.118Z,9.78
2019-02-24T11:35:14.160Z,10.07
2019-02-24T11:39:21.251Z,10.18
2019-02-24T11:43:28.423Z,10.53
2019-02-24T11:47:35.560Z,11.15
2019-02-24T11:51:42.659Z,10.77
2019-02-24T11:55:49.714Z,11.32
2019-02-24T11:59:57.175Z,11.47
2019-02-24T12:04:04.166Z,12.25
2019-02-24T12:08:11.044Z,12.55
2019-02-24T12:12:18.241Z,13.26
2019-02-24T12:16:25.401Z,13.93
2019-02-24T12:20:32.488Z,14.34
2019-02-24T12:24:39.533Z,14.68
2019-02-24T12:28:47.707Z,15.19
2019-02-24T12:32:54.682Z,15.78
2019-02-24T12:37:01.833Z,15.49
2019-02-24T12:41:08.994Z,16.21
2019-02-24T12:45:17.745Z,16.63
2019-02-24T12:49:24.776Z,15.58
2019-02-24T12:53:31.912Z,16.22
2019-02-24T12:57:38.802Z,16.42
2019-02-24T13:01:46.027Z,16.17
2019-02-24T13:05:53.293Z,16.19
2019-02-24T13:10:00.354Z,14.83
2019-02-24T13:14:07.427Z,17.12
2019-02-24T13:18:15.331Z,16.75
2019-02-24T13:22:22.476Z,17.31
2019-02-24T13:26:29.443Z,17.67
2019-02-24T13:30:36.636Z,17.32
2019-02-24T13:34:43.605Z,17.36
2019-02-24T13:38:52.303Z,16.49
2019-02-24T13:42:59.226Z,17.49
2019-02-24T13:47:06.408Z,17.42
2019-02-24T13:51:13.520Z,17.03
2019-02-24T13:55:20.405Z,16.44
2019-02-24T13:59:27.510Z,15.89
2019-02-24T14:03:34.447Z,16.86
2019-02-24T14:07:41.346Z,16.91
2019-02-24T14:11:48.485Z,16.49
2019-02-24T14:15:55.346Z,14.74
2019-02-24T14:20:02.657Z,14.07
2019-02-24T14:24:09.688Z,14.49
2019-02-24T14:28:16.702Z,14.23
2019-02-24T14:32:32.709Z,14.22
2019-02-24T14:36:32.486Z,13.63
2019-02-24T14:40:39.474Z,13.59
2019-02-24T14:44:46.437Z,13.04
2019-02-24T14:48:53.387Z,13.22
2019-02-24T14:53:00.402Z,13.17
2019-02-24T14:57:07.612Z,13.13
2019-02-24T15:01:14.581Z,12.48
2019-02-24T15:05:21.570Z,12.13
2019-02-24T15:09:28.500Z,12.42
2019-02-24T15:13:35.512Z,12.33
2019-02-24T15:17:42.422Z,12.14
2019-02-24T15:21:49.307Z,12.37
2019-02-24T15:25:56.131Z,12.36
2019-02-24T15:30:03.259Z,12.23
2019-02-24T15:34:10.637Z,12.11
2019-02-24T15:38:19.069Z,11.94
2019-02-24T15:42:26.051Z,11.84
2019-02-24T15:46:32.946Z,11.97
2019-02-24T15:50:39.793Z,11.87
2019-02-24T15:54:46.741Z,11.74
2019-02-24T15:58:53.774Z,11.74
2019-02-24T16:03:01.989Z,11.69
2019-02-24T16:07:10.454Z,11.66
2019-02-24T16:11:17.323Z,11.56
2019-02-24T16:15:24.246Z,11.47
2019-02-24T16:19:31.165Z,11.41
2019-02-24T16:23:38.275Z,11.29
2019-02-24T16:27:45.487Z,11.21
2019-02-24T16:31:52.380Z,11.09
2019-02-24T16:35:59.387Z,10.99
2019-02-24T16:40:08.037Z,10.93
2019-02-24T16:44:15.153Z,10.83
2019-02-24T16:48:21.983Z,10.79
2019-02-24T16:52:28.921Z,10.76
2019-02-24T16:56:36.261Z,10.63
2019-02-24T17:00:43.213Z,10.54
2019-02-24T17:04:50.254Z,10.41
2019-02-24T17:09:00.561Z,10.24
2019-02-24T17:13:05.777Z,10.18
2019-02-24T17:17:12.781Z,10.07
2019-02-24T17:21:19.601Z,9.91
2019-02-24T17:25:26.662Z,9.83
2019-02-24T17:29:33.559Z,9.75
2019-02-24T17:33:40.582Z,9.65
2019-02-24T17:37:50.182Z,9.53
2019-02-24T17:41:57.233Z,9.50
2019-02-24T17:46:04.382Z,9.44
2019-02-24T17:50:12.866Z,9.40
2019-02-24T17:54:19.838Z,9.33
2019-02-24T17:58:26.940Z,9.30
2019-02-24T18:02:33.998Z,9.27
2019-02-24T18:06:40.976Z,9.24
2019-02-24T18:10:48.040Z,9.24
2019-02-24T18:14:55.129Z,9.13
2019-02-24T18:19:02.103Z,9.10
2019-02-24T18:23:08.977Z,9.05
2019-02-24T18:27:16.036Z,9.00
2019-02-24T18:31:23.016Z,9.00
2019-02-24T18:35:29.987Z,9.15
2019-02-24T18:39:37.158Z,9.04
2019-02-24T18:43:45.947Z,8.97
2019-02-24T18:47:52.955Z,8.95
2019-02-24T18:51:59.961Z,8.91
2019-02-24T18:56:08.148Z,8.95
2019-02-24T19:00:16.861Z,8.83
2019-02-24T19:04:23.917Z,8.80
2019-02-24T19:08:30.893Z,8.77
2019-02-24T19:12:37.838Z,8.77
2019-02-24T19:16:44.847Z,8.75
2019-02-24T19:20:51.999Z,8.68
2019-02-24T19:24:58.845Z,8.61
2019-02-24T19:29:05.734Z,8.52
2019-02-24T19:33:12.622Z,8.41
2019-02-24T19:37:19.605Z,8.37
2019-02-24T19:41:26.528Z,8.24
2019-02-24T19:45:33.520Z,8.18
2019-02-24T19:49:41.925Z,8.18
2019-02-24T19:53:48.847Z,8.08
2019-02-24T19:57:55.801Z,8.04
2019-02-24T20:02:02.722Z,7.98
2019-02-24T20:06:09.581Z,7.93
2019-02-24T20:10:19.135Z,7.84
2019-02-24T20:14:26.164Z,7.80
2019-02-24T20:18:33.021Z,7.79
2019-02-24T20:22:39.832Z,7.75
2019-02-24T20:26:46.806Z,7.75
2019-02-24T20:30:54.212Z,7.71
2019-02-24T20:35:01.274Z,7.69
2019-02-24T20:39:08.930Z,7.69
2019-02-24T20:43:16.014Z,7.74
2019-02-24T20:47:22.939Z,7.77
2019-02-24T20:51:29.804Z,7.76
2019-02-24T20:55:36.704Z,7.76
2019-02-24T20:59:43.694Z,7.73
2019-02-24T21:03:50.651Z,7.72
2019-02-24T21:07:57.721Z,7.83
2019-02-24T21:12:04.740Z,7.73
2019-02-24T21:16:11.530Z,7.81
2019-02-24T21:20:28.472Z,8.09
2019-02-24T21:24:35.293Z,7.67
2019-02-24T21:28:42.336Z,7.55
2019-02-24T21:32:49.146Z,7.39
2019-02-24T21:36:56.091Z,7.33
2019-02-24T21:41:04.101Z,7.18
2019-02-24T21:45:16.798Z,7.00
2019-02-24T21:49:23.863Z,6.96
2019-02-24T21:53:30.826Z,6.83
2019-02-24T21:57:38.325Z,6.78
2019-02-24T22:01:47.292Z,6.70
2019-02-24T22:05:55.459Z,6.57
2019-02-24T22:10:02.444Z,6.42
2019-02-24T22:14:09.389Z,6.32
2019-02-24T22:18:16.250Z,6.23
2019-02-24T22:22:23.290Z,6.06
2019-02-24T22:26:30.205Z,5.96
2019-02-24T22:30:37.249Z,5.83
2019-02-24T22:34:44.296Z,5.85
2019-02-24T22:38:51.190Z,5.78
2019-02-24T22:42:58.117Z,5.76
2019-02-24T22:47:05.154Z,5.72
2019-02-24T22:51:12.099Z,5.62
2019-02-24T22:55:19.038Z,5.70
2019-02-24T22:59:25.893Z,5.64
2019-02-24T23:03:38.656Z,5.61
2019-02-24T23:07:45.584Z,5.56
2019-02-24T23:11:52.591Z,5.54
2019-02-24T23:16:00.006Z,5.55
2019-02-24T23:20:07.322Z,5.54
2019-02-24T23:24:14.156Z,5.50
2019-02-24T23:28:21.121Z,5.49
2019-02-24T23:32:28.051Z,5.46
2019-02-24T23:36:34.996Z,5.36
2019-02-24T23:40:41.948Z,5.16
2019-02-24T23:44:48.881Z,5.16
2019-02-24T23:48:57.088Z,5.07
2019-02-24T23:53:04.014Z,5.04
2019-02-24T23:57:10.843Z,4.90
